Time;durP1;ratioP1;P1;durP2;ratioP2;P2;SDS_P1;SDS_P2;PMS_P1;PMS_P2;Temp;Humidity;BMP_temperature;BMP_pressure;BME280_temperature;BME280_humidity;BME280_pressure;Samples;Min_cycle;Max_cycle;Signal;HPM_P1;HPM_P2
2022/06/06 00:02:06;;;;;;;;;;;;;;;21.65;72.30;100698.91;7406724;19;1845;-58
2022/06/06 00:04:34;;;;;;;;;;;;;;;21.88;71.42;100667.97;7406038;19;1418;-59
2022/06/06 00:07:05;;;;;;;;;;;;;;;21.89;71.31;100658.91;7408066;19;1383;-59
2022/06/06 00:09:34;;;;;;;;;;;;;;;21.84;71.54;100670.13;7405532;19;1455;-59
2022/06/06 00:12:03;;;;;;;;;;;;;;;21.90;71.54;100671.34;7408620;19;1517;-57
2022/06/06 00:14:32;;;;;;;;;;;;;;;21.93;71.38;100660.28;7408478;19;1296;-59
2022/06/06 00:17:00;;;;;;;;;;;;;;;21.96;71.20;100681.50;7407951;19;1406;-58
2022/06/06 00:19:29;;;;;;;;;;;;;;;21.92;71.71;100680.97;7406408;19;1395;-57
2022/06/06 00:21:58;;;;;;;;;;;;;;;21.82;71.89;100685.59;7404370;19;1853;-59
2022/06/06 00:24:29;;;;;;;;;;;;;;;21.89;72.22;100675.06;7406079;19;1312;-58
2022/06/06 00:26:57;;;;;;;;;;;;;;;21.90;71.88;100657.91;7407135;19;1623;-59
2022/06/06 00:29:27;;;;;;;;;;;;;;;21.89;71.87;100634.69;7406687;19;1307;-58
2022/06/06 00:37:18;;;;;;;;;;;;;;;21.64;71.94;100607.56;7408484;19;1410;-58
2022/06/06 00:39:49;;;;;;;;;;;;;;;21.59;71.89;100621.50;7405384;19;1764;-59
2022/06/06 00:42:22;;;;;;;;;;;;;;;21.49;71.97;100619.88;7403678;19;1857;-59
2022/06/06 00:44:51;;;;;;;;;;;;;;;21.59;71.48;100613.44;7404251;19;1374;-59
2022/06/06 00:47:24;;;;;;;;;;;;;;;21.68;71.15;100608.13;7406527;19;1324;-59
2022/06/06 00:49:55;;;;;;;;;;;;;;;21.67;71.47;100601.06;7405385;19;1363;-59
2022/06/06 00:52:25;;;;;;;;;;;;;;;21.79;70.89;100594.41;7407192;19;999;-59
2022/06/06 00:54:59;;;;;;;;;;;;;;;21.72;70.69;100588.78;7404075;19;1483;-58
2022/06/06 00:57:30;;;;;;;;;;;;;;;21.60;71.22;100598.13;7405055;19;1423;-58
2022/06/06 01:00:00;;;;;;;;;;;;;;;21.61;71.22;100597.13;7406066;19;1616;-57
2022/06/06 01:02:28;;;;;;;;;;;;;;;21.54;70.95;100607.66;7404826;19;1847;-57
2022/06/06 01:04:57;;;;;;;;;;;;;;;21.64;70.90;100618.34;7404258;19;1361;-57
2022/06/06 01:07:25;;;;;;;;;;;;;;;21.69;70.76;100632.19;7406860;19;1071;-58
2022/06/06 01:09:56;;;;;;;;;;;;;;;21.73;70.53;100644.31;7404148;19;1636;-59
2022/06/06 01:12:25;;;;;;;;;;;;;;;21.62;70.53;100636.50;7404622;19;1481;-59
2022/06/06 01:14:56;;;;;;;;;;;;;;;21.80;70.12;100641.84;7405162;19;1064;-57
2022/06/06 01:17:30;;;;;;;;;;;;;;;21.59;70.77;100636.81;7405002;19;1738;-57
2022/06/06 01:20:06;;;;;;;;;;;;;;;21.87;70.08;100629.44;7405117;19;1533;-57
2022/06/06 01:22:52;;;;;;;;;;;;;;;21.75;70.62;100631.56;7403684;19;1846;-57
2022/06/06 01:25:38;;;;;;;;;;;;;;;21.73;70.49;100624.66;7405913;19;1885;-58
2022/06/06 01:28:10;;;;;;;;;;;;;;;21.69;70.83;100618.72;7405635;19;1528;-59
2022/06/06 01:30:44;;;;;;;;;;;;;;;21.73;70.62;100632.72;7405500;19;1418;-59
2022/06/06 01:33:15;;;;;;;;;;;;;;;21.72;70.47;100623.78;7404132;19;1501;-59
2022/06/06 01:35:44;;;;;;;;;;;;;;;21.82;70.19;100616.44;7403167;19;1451;-58
2022/06/06 01:38:14;;;;;;;;;;;;;;;21.64;70.51;100603.03;7402344;19;1378;-59
2022/06/06 01:40:45;;;;;;;;;;;;;;;21.65;70.67;100615.50;7405407;19;1502;-57
2022/06/06 01:43:16;;;;;;;;;;;;;;;21.61;70.69;100614.13;7402497;19;1849;-59
2022/06/06 01:45:50;;;;;;;;;;;;;;;21.59;70.82;100615.28;7405480;19;1627;-59
2022/06/06 01:48:22;;;;;;;;;;;;;;;21.51;70.85;100604.47;7402656;19;1606;-58
2022/06/06 01:50:51;;;;;;;;;;;;;;;21.53;71.01;100607.84;7404238;19;1602;-57
2022/06/06 01:53:20;;;;;;;;;;;;;;;21.55;70.77;100592.38;7404542;19;1339;-57
2022/06/06 01:55:50;;;;;;;;;;;;;;;21.22;72.01;100611.72;7404433;19;1670;-59
2022/06/06 01:58:21;;;;;;;;;;;;;;;21.29;71.77;100603.91;7403676;19;1667;-58
2022/06/06 02:03:27;;;;;;;;;;;;;;;21.40;71.29;100592.88;7397495;19;1821;-41
2022/06/06 02:06:05;;;;;;;;;;;;;;;21.20;71.39;100584.16;7402013;19;1032;-41
2022/06/06 02:08:35;;;;;;;;;;;;;;;21.27;71.30;100579.03;7402214;19;1035;-41
2022/06/06 02:11:06;;;;;;;;;;;;;;;21.37;71.18;100569.00;7401141;19;1759;-41
2022/06/06 02:13:38;;;;;;;;;;;;;;;21.43;71.02;100579.19;7401111;19;1606;-41
2022/06/06 02:16:11;;;;;;;;;;;;;;;21.33;71.46;100573.00;7400595;19;1595;-41
2022/06/06 02:18:45;;;;;;;;;;;;;;;21.19;71.77;100576.25;7400751;19;1942;-41
2022/06/06 02:21:16;;;;;;;;;;;;;;;21.19;71.78;100560.13;7398037;19;1324;-41
2022/06/06 02:23:48;;;;;;;;;;;;;;;21.10;71.86;100537.69;7399343;19;1904;-41
2022/06/06 02:26:28;;;;;;;;;;;;;;;21.19;71.71;100538.63;7401197;19;1051;-41
2022/06/06 02:31:40;;;;;;;;;;;;;;;21.09;71.74;100527.06;7398871;19;2303;-41
2022/06/06 02:34:13;;;;;;;;;;;;;;;21.30;70.99;100524.91;7401788;19;982;-42
2022/06/06 02:36:42;;;;;;;;;;;;;;;21.14;71.54;100541.75;7401130;19;1774;-41
2022/06/06 02:39:10;;;;;;;;;;;;;;;21.19;71.65;100527.84;7397420;19;1936;-41
2022/06/06 02:41:49;;;;;;;;;;;;;;;21.20;71.20;100508.84;7399019;19;1853;-41
2022/06/06 02:44:17;;;;;;;;;;;;;;;20.94;72.38;100567.94;7398345;19;1858;-41
2022/06/06 02:46:55;;;;;;;;;;;;;;;21.22;71.48;100703.16;7400831;19;1820;-41
2022/06/06 02:49:27;;;;;;;;;;;;;;;21.11;71.44;100742.88;7406751;19;1651;-41
2022/06/06 02:51:57;;;;;;;;;;;;;;;20.60;73.27;100925.94;7408194;19;1091;-40
2022/06/06 02:54:30;;;;;;;;;;;;;;;21.11;71.85;100628.13;7404887;19;1765;-41
2022/06/06 02:57:03;;;;;;;;;;;;;;;21.63;70.35;100705.47;7407513;19;1592;-41
2022/06/06 02:59:38;;;;;;;;;;;;;;;21.80;70.21;100715.34;7403972;19;1839;-41
2022/06/06 03:02:17;;;;;;;;;;;;;;;21.91;70.16;100705.38;7404295;19;1849;-41
2022/06/06 03:04:55;;;;;;;;;;;;;;;21.79;70.03;100683.22;7403126;19;1881;-41
2022/06/06 03:07:26;;;;;;;;;;;;;;;21.67;70.29;100709.53;7407209;19;1033;-41
2022/06/06 03:10:02;;;;;;;;;;;;;;;21.76;70.28;100719.34;7405622;19;2106;-41
2022/06/06 03:12:52;;;;;;;;;;;;;;;21.84;70.36;100711.38;7404837;19;1800;-41
2022/06/06 03:15:26;;;;;;;;;;;;;;;21.78;70.25;100679.66;7406616;19;1831;-41
2022/06/06 03:20:49;;;;;;;;;;;;;;;21.65;69.56;100684.63;7407056;19;1921;-41
2022/06/06 03:23:46;;;;;;;;;;;;;;;21.56;69.89;100691.75;7400627;19;1851;-41
2022/06/06 03:26:36;;;;;;;;;;;;;;;21.66;69.72;100680.91;7402227;19;1883;-41
2022/06/06 03:29:22;;;;;;;;;;;;;;;21.76;70.72;100678.97;7406049;19;1913;-41
2022/06/06 03:32:00;;;;;;;;;;;;;;;21.75;69.54;100677.31;7406848;19;1823;-41
2022/06/06 03:34:40;;;;;;;;;;;;;;;21.77;69.67;100669.94;7406509;19;1486;-41
2022/06/06 03:37:20;;;;;;;;;;;;;;;21.83;70.33;100645.06;7407083;19;1031;-41
2022/06/06 03:39:54;;;;;;;;;;;;;;;21.90;69.97;100639.88;7404164;19;1765;-41
2022/06/06 03:42:29;;;;;;;;;;;;;;;21.95;69.80;100642.13;7403895;19;1861;-42
2022/06/06 03:45:24;;;;;;;;;;;;;;;21.84;69.37;100630.63;7403421;19;1579;-41
2022/06/06 03:47:59;;;;;;;;;;;;;;;21.85;69.55;100637.69;7404882;19;1797;-41
2022/06/06 03:50:42;;;;;;;;;;;;;;;21.97;69.28;100626.66;7403811;19;2050;-41
2022/06/06 03:53:19;;;;;;;;;;;;;;;22.02;69.21;100637.78;7404718;19;1146;-41
2022/06/06 03:56:00;;;;;;;;;;;;;;;22.11;69.10;100650.31;7405138;19;1965;-41
2022/06/06 03:58:31;;;;;;;;;;;;;;;22.07;69.54;100645.41;7404551;19;1740;-41
2022/06/06 04:01:00;;;;;;;;;;;;;;;22.12;69.43;100662.75;7402821;19;2083;-42
2022/06/06 04:03:47;;;;;;;;;;;;;;;22.14;69.70;100666.13;7402268;19;1844;-42
2022/06/06 04:06:16;;;;;;;;;;;;;;;22.12;69.93;100676.22;7399160;19;1861;-42
2022/06/06 04:08:47;;;;;;;;;;;;;;;22.15;70.32;100686.69;7399892;19;1918;-43
2022/06/06 04:11:23;;;;;;;;;;;;;;;22.02;70.73;100705.09;7400661;19;1075;-42
2022/06/06 04:13:56;;;;;;;;;;;;;;;21.93;70.51;100703.38;7403845;19;1019;-42
2022/06/06 04:16:31;;;;;;;;;;;;;;;21.97;70.87;100710.13;7403155;19;1028;-42
2022/06/06 04:19:04;;;;;;;;;;;;;;;22.06;70.44;100719.94;7402683;19;1867;-42
2022/06/06 04:21:37;;;;;;;;;;;;;;;22.10;70.06;100713.22;7404056;19;1924;-42
2022/06/06 04:24:25;;;;;;;;;;;;;;;22.12;70.57;100721.16;7398845;19;1885;-42
2022/06/06 04:26:58;;;;;;;;;;;;;;;22.18;69.93;100718.72;7404100;19;1583;-42
2022/06/06 04:29:40;;;;;;;;;;;;;;;22.19;70.32;100723.06;7403615;19;1837;-42
2022/06/06 04:32:14;;;;;;;;;;;;;;;22.18;69.70;100707.94;7403132;19;1745;-43
2022/06/06 04:34:47;;;;;;;;;;;;;;;22.08;69.78;100741.34;7403542;19;1658;-42
2022/06/06 04:37:20;;;;;;;;;;;;;;;22.15;69.96;100734.31;7403831;19;1087;-42
2022/06/06 04:39:54;;;;;;;;;;;;;;;22.17;70.23;100743.09;7401387;19;1754;-41
2022/06/06 04:42:25;;;;;;;;;;;;;;;22.20;69.95;100748.16;7402391;19;1896;-42
2022/06/06 04:44:57;;;;;;;;;;;;;;;22.18;69.73;100742.94;7403359;19;1549;-42
2022/06/06 04:47:28;;;;;;;;;;;;;;;22.18;69.76;100751.03;7402486;19;1679;-42
2022/06/06 04:49:59;;;;;;;;;;;;;;;22.18;69.82;100761.81;7403660;19;1621;-41
2022/06/06 04:52:28;;;;;;;;;;;;;;;22.20;69.96;100757.09;7403642;19;1733;-42
2022/06/06 04:55:00;;;;;;;;;;;;;;;22.19;69.82;100766.16;7401722;19;1730;-42
2022/06/06 04:57:29;;;;;;;;;;;;;;;22.15;69.89;100767.47;7402022;19;1618;-42
2022/06/06 04:59:59;;;;;;;;;;;;;;;22.17;69.71;100765.47;7403446;19;1828;-42
2022/06/06 05:02:27;;;;;;;;;;;;;;;22.20;69.71;100769.69;7400122;19;1848;-42
2022/06/06 05:04:55;;;;;;;;;;;;;;;22.20;69.65;100770.56;7402066;19;1819;-42
2022/06/06 05:07:31;;;;;;;;;;;;;;;22.20;69.72;100780.47;7403638;19;966;-42
2022/06/06 05:10:20;;;;;;;;;;;;;;;22.17;69.99;100776.25;7400444;19;2007;-42
2022/06/06 05:13:04;;;;;;;;;;;;;;;22.18;69.83;100788.72;7399848;19;1923;-42
2022/06/06 05:15:41;;;;;;;;;;;;;;;22.14;69.63;100798.09;7400303;19;1638;-41
2022/06/06 05:18:25;;;;;;;;;;;;;;;22.17;69.89;100803.19;7401102;19;1716;-42
2022/06/06 05:20:59;;;;;;;;;;;;;;;22.18;69.73;100802.19;7401365;19;1697;-42
2022/06/06 05:23:41;;;;;;;;;;;;;;;22.19;69.68;100784.19;7401522;19;1957;-42
2022/06/06 05:26:16;;;;;;;;;;;;;;;22.24;69.49;100780.06;7401746;19;1579;-42
2022/06/06 05:29:00;;;;;;;;;;;;;;;22.26;69.62;100784.44;7402362;19;1668;-42
2022/06/06 05:31:35;;;;;;;;;;;;;;;22.19;69.62;100795.78;7401627;19;1564;-42
2022/06/06 05:34:07;;;;;;;;;;;;;;;22.23;69.47;100807.94;7402828;19;1026;-42
2022/06/06 05:36:51;;;;;;;;;;;;;;;22.21;69.47;100796.50;7402141;19;2074;-41
2022/06/06 05:39:34;;;;;;;;;;;;;;;22.27;69.40;100805.00;7398984;19;1832;-42
2022/06/06 05:42:09;;;;;;;;;;;;;;;22.26;69.34;100805.97;7401525;19;1568;-42
2022/06/06 05:44:47;;;;;;;;;;;;;;;22.25;69.54;100815.91;7399408;19;1904;-42
2022/06/06 05:47:22;;;;;;;;;;;;;;;22.21;69.27;100828.81;7400698;19;1674;-42
2022/06/06 05:49:57;;;;;;;;;;;;;;;22.22;69.38;100811.66;7401120;19;1823;-42
2022/06/06 05:52:35;;;;;;;;;;;;;;;22.22;69.81;100821.56;7401182;19;1663;-42
2022/06/06 05:55:08;;;;;;;;;;;;;;;22.25;69.28;100832.06;7399961;19;1691;-42
2022/06/06 05:57:43;;;;;;;;;;;;;;;22.25;69.33;100832.06;7400529;19;1766;-42
2022/06/06 06:00:21;;;;;;;;;;;;;;;22.31;69.21;100846.78;7399536;19;1717;-42
2022/06/06 06:03:08;;;;;;;;;;;;;;;22.32;69.30;100848.47;7397544;19;1850;-42
2022/06/06 06:05:44;;;;;;;;;;;;;;;22.32;69.22;100856.53;7399912;19;1892;-41
2022/06/06 06:08:19;;;;;;;;;;;;;;;22.32;68.76;100854.72;7400004;19;1625;-41
2022/06/06 06:10:50;;;;;;;;;;;;;;;22.34;69.28;100858.09;7399637;19;1760;-42
2022/06/06 06:13:24;;;;;;;;;;;;;;;22.31;69.61;100852.16;7399321;19;1871;-42
2022/06/06 06:15:57;;;;;;;;;;;;;;;22.28;69.48;100847.06;7399177;19;1755;-42
2022/06/06 06:18:32;;;;;;;;;;;;;;;22.33;69.49;100869.03;7399603;19;1775;-41
2022/06/06 06:21:04;;;;;;;;;;;;;;;22.34;69.56;100854.53;7399410;19;1893;-41
2022/06/06 06:26:18;;;;;;;;;;;;;;;22.38;69.25;100859.47;7403851;19;1660;-43
2022/06/06 06:29:06;;;;;;;;;;;;;;;22.51;69.18;100856.38;7408120;19;1576;-41
2022/06/06 06:31:59;;;;;;;;;;;;;;;22.47;68.91;100852.28;7408180;19;1590;-41
2022/06/06 06:34:35;;;;;;;;;;;;;;;22.37;68.93;100851.53;7400964;19;2146;-41
2022/06/06 06:37:12;;;;;;;;;;;;;;;22.42;69.61;100854.59;7408363;19;1390;-41
2022/06/06 06:39:58;;;;;;;;;;;;;;;22.40;69.35;100846.69;7405798;19;1788;-41
2022/06/06 06:42:38;;;;;;;;;;;;;;;22.49;69.17;100849.44;7406580;19;1467;-42
2022/06/06 06:45:11;;;;;;;;;;;;;;;22.52;68.86;100851.81;7404044;19;1841;-41
2022/06/06 06:47:40;;;;;;;;;;;;;;;22.62;68.77;100849.88;7400623;19;2019;-43
2022/06/06 06:50:14;;;;;;;;;;;;;;;22.57;68.71;100853.03;7404375;19;1771;-42
2022/06/06 06:52:52;;;;;;;;;;;;;;;22.50;68.97;100830.44;7402554;19;983;-42
2022/06/06 06:55:23;;;;;;;;;;;;;;;22.48;69.36;100845.88;7405798;19;1643;-41
2022/06/06 06:58:01;;;;;;;;;;;;;;;22.42;69.30;100841.13;7406299;19;1692;-41
2022/06/06 07:00:32;;;;;;;;;;;;;;;22.45;69.50;100859.69;7406172;19;1749;-42
2022/06/06 07:08:37;;;;;;;;;;;;;;;22.39;68.90;100854.94;7406566;19;849;-41
2022/06/06 07:11:13;;;;;;;;;;;;;;;22.35;68.98;100848.16;7407147;19;1044;-41
2022/06/06 07:13:49;;;;;;;;;;;;;;;22.33;69.10;100845.63;7406283;19;1971;-41
2022/06/06 07:16:22;;;;;;;;;;;;;;;22.31;68.69;100850.31;7406817;19;1959;-41
2022/06/06 07:18:52;;;;;;;;;;;;;;;22.33;68.76;100858.25;7406150;19;1843;-41
2022/06/06 07:21:24;;;;;;;;;;;;;;;22.33;69.06;100851.00;7405803;19;1970;-41
2022/06/06 07:23:53;;;;;;;;;;;;;;;22.33;68.66;100855.56;7401814;19;1989;-43
2022/06/06 07:26:21;;;;;;;;;;;;;;;22.34;68.95;100862.63;7405558;19;1429;-42
2022/06/06 07:28:50;;;;;;;;;;;;;;;22.37;69.11;100862.31;7406895;19;967;-41
2022/06/06 07:31:23;;;;;;;;;;;;;;;22.39;69.02;100866.53;7406276;19;1942;-41
2022/06/06 07:34:04;;;;;;;;;;;;;;;22.38;68.62;100851.41;7404231;19;1723;-41
2022/06/06 07:36:41;;;;;;;;;;;;;;;22.44;68.66;100860.69;7405340;19;1808;-42
2022/06/06 07:39:15;;;;;;;;;;;;;;;22.49;68.36;100868.31;7402771;19;1769;-41
2022/06/06 07:41:53;;;;;;;;;;;;;;;22.50;68.23;100860.06;7405007;19;1915;-41
2022/06/06 07:44:37;;;;;;;;;;;;;;;22.62;67.94;100858.81;7403594;19;1900;-41
2022/06/06 07:47:07;;;;;;;;;;;;;;;22.72;67.74;100874.03;7405491;19;1926;-42
2022/06/06 07:49:41;;;;;;;;;;;;;;;22.71;67.73;100866.97;7404793;19;1657;-42
2022/06/06 07:52:18;;;;;;;;;;;;;;;22.72;67.48;100869.50;7406424;19;1049;-41
2022/06/06 07:54:58;;;;;;;;;;;;;;;22.85;67.49;100882.56;7402048;19;1537;-41
2022/06/06 07:57:34;;;;;;;;;;;;;;;23.06;67.21;100859.78;7404035;19;1828;-41
2022/06/06 08:00:10;;;;;;;;;;;;;;;23.09;67.65;100871.09;7404245;19;1670;-41
2022/06/06 08:02:53;;;;;;;;;;;;;;;23.02;67.49;100865.50;7403349;19;1646;-41
2022/06/06 08:05:29;;;;;;;;;;;;;;;22.99;67.36;100865.78;7400521;19;1841;-42
2022/06/06 08:08:08;;;;;;;;;;;;;;;22.99;66.97;100862.25;7405567;19;1515;-43
2022/06/06 08:10:40;;;;;;;;;;;;;;;23.08;66.70;100873.97;7403957;19;1675;-43
2022/06/06 08:13:17;;;;;;;;;;;;;;;23.08;66.42;100868.56;7404054;19;1641;-41
2022/06/06 08:15:53;;;;;;;;;;;;;;;23.15;66.25;100885.81;7403788;19;1390;-41
2022/06/06 08:18:31;;;;;;;;;;;;;;;23.15;65.96;100877.72;7404484;19;1719;-41
2022/06/06 08:21:05;;;;;;;;;;;;;;;23.28;65.88;100870.03;7403580;19;1687;-42
2022/06/06 08:23:37;;;;;;;;;;;;;;;23.30;65.14;100876.13;7404605;19;1865;-41
2022/06/06 08:26:06;;;;;;;;;;;;;;;23.31;65.71;100864.31;7403672;19;1506;-41
2022/06/06 08:28:37;;;;;;;;;;;;;;;23.26;65.96;100877.44;7403680;19;1848;-41
2022/06/06 08:31:06;;;;;;;;;;;;;;;23.35;64.61;100883.72;7402896;19;1931;-42
2022/06/06 08:33:34;;;;;;;;;;;;;;;23.42;64.41;100877.50;7403007;19;1955;-41
2022/06/06 08:36:10;;;;;;;;;;;;;;;23.38;65.39;100881.53;7404257;19;1525;-41
2022/06/06 08:38:54;;;;;;;;;;;;;;;23.40;65.16;100884.09;7403624;19;1319;-42
2022/06/06 08:41:37;;;;;;;;;;;;;;;23.49;64.88;100887.66;7403129;19;1492;-41
2022/06/06 08:44:09;;;;;;;;;;;;;;;23.33;64.98;100889.28;7402804;19;1830;-41
2022/06/06 08:46:45;;;;;;;;;;;;;;;23.27;65.04;100895.31;7400077;19;1931;-42
2022/06/06 08:52:30;;;;;;;;;;;;;;;23.29;65.49;100895.16;7404658;19;1559;-41
2022/06/06 08:55:11;;;;;;;;;;;;;;;23.21;65.87;100893.25;7402293;19;1687;-42
2022/06/06 08:57:54;;;;;;;;;;;;;;;23.20;65.84;100887.03;7401666;19;1953;-42
2022/06/06 09:00:27;;;;;;;;;;;;;;;23.15;65.67;100888.50;7399001;19;1667;-41
2022/06/06 09:03:19;;;;;;;;;;;;;;;23.17;65.70;100900.81;7401016;19;1932;-41
2022/06/06 09:06:02;;;;;;;;;;;;;;;23.18;65.84;100894.44;7397559;19;1842;-42
2022/06/06 09:08:48;;;;;;;;;;;;;;;23.24;65.95;100901.03;7396805;19;1504;-41
2022/06/06 09:11:28;;;;;;;;;;;;;;;23.21;65.70;100904.06;7403016;19;1463;-41
2022/06/06 09:14:17;;;;;;;;;;;;;;;23.18;66.17;100899.00;7403065;19;1364;-41
2022/06/06 09:17:03;;;;;;;;;;;;;;;23.15;66.10;100888.50;7401823;19;1681;-42
2022/06/06 09:19:46;;;;;;;;;;;;;;;23.15;66.07;100883.13;7399732;19;1680;-41
2022/06/06 09:22:29;;;;;;;;;;;;;;;23.18;66.11;100902.53;7400953;19;1839;-41
2022/06/06 09:25:09;;;;;;;;;;;;;;;23.16;66.22;100885.66;7398739;19;1863;-42
2022/06/06 09:27:52;;;;;;;;;;;;;;;23.21;66.00;100910.28;7401655;19;1826;-41
2022/06/06 09:30:29;;;;;;;;;;;;;;;23.23;65.89;100907.44;7401819;19;1834;-41
2022/06/06 09:33:18;;;;;;;;;;;;;;;23.22;66.14;100911.16;7399201;19;1448;-41
2022/06/06 09:35:56;;;;;;;;;;;;;;;23.19;65.82;100895.28;7399868;19;2076;-41
2022/06/06 09:38:40;;;;;;;;;;;;;;;23.19;66.03;100904.19;7401967;19;1316;-41
2022/06/06 09:41:22;;;;;;;;;;;;;;;23.21;66.01;100899.50;7401699;19;1382;-41
2022/06/06 09:43:57;;;;;;;;;;;;;;;23.19;66.25;100906.06;7400666;19;1862;-41
2022/06/06 09:46:39;;;;;;;;;;;;;;;23.20;66.34;100899.69;7400514;19;1377;-41
2022/06/06 09:49:21;;;;;;;;;;;;;;;23.19;66.33;100890.72;7401562;19;1797;-41
2022/06/06 09:52:10;;;;;;;;;;;;;;;23.20;66.34;100896.97;7402051;19;1658;-41
2022/06/06 10:00:35;;;;;;;;;;;;;;;23.13;67.00;100896.75;7407391;19;1666;-41
2022/06/06 10:03:24;;;;;;;;;;;;;;;23.07;66.70;100891.16;7404176;19;1822;-41
2022/06/06 10:06:13;;;;;;;;;;;;;;;23.13;66.86;100922.88;7405075;19;1855;-41
2022/06/06 10:09:02;;;;;;;;;;;;;;;23.07;66.97;100901.94;7408637;19;1811;-41
2022/06/06 10:11:45;;;;;;;;;;;;;;;23.08;67.16;100885.63;7408605;19;1411;-41
2022/06/06 10:14:21;;;;;;;;;;;;;;;23.08;67.42;100877.53;7408114;19;1475;-42
2022/06/06 10:16:59;;;;;;;;;;;;;;;23.08;67.15;100877.53;7408139;19;1719;-41
2022/06/06 10:19:49;;;;;;;;;;;;;;;23.08;67.09;100876.66;7408605;19;1900;-41
2022/06/06 10:22:32;;;;;;;;;;;;;;;23.06;67.12;100873.28;7408469;19;1396;-41
2022/06/06 10:25:15;;;;;;;;;;;;;;;23.01;67.09;100876.41;7405591;19;1945;-40
2022/06/06 10:27:51;;;;;;;;;;;;;;;23.06;67.11;100867.88;7407727;19;1629;-41
2022/06/06 10:30:22;;;;;;;;;;;;;;;23.08;67.19;100872.13;7406984;19;1807;-41
2022/06/06 10:33:03;;;;;;;;;;;;;;;23.08;67.10;100879.34;7406737;19;1846;-41
2022/06/06 10:35:39;;;;;;;;;;;;;;;23.02;67.29;100867.38;7406646;19;1817;-41
2022/06/06 10:38:16;;;;;;;;;;;;;;;23.05;66.90;100882.38;7407237;19;1031;-41
2022/06/06 10:40:52;;;;;;;;;;;;;;;22.99;67.10;100863.09;7407592;19;2045;-41
2022/06/06 10:43:35;;;;;;;;;;;;;;;23.08;66.95;100882.03;7406535;19;1925;-41
2022/06/06 10:46:04;;;;;;;;;;;;;;;23.01;67.07;100865.63;7405410;19;1853;-41
2022/06/06 10:48:40;;;;;;;;;;;;;;;23.05;66.85;100874.28;7406198;19;2074;-41
2022/06/06 10:51:42;;;;;;;;;;;;;;;23.03;67.05;100869.88;7407712;19;1827;-41
2022/06/06 10:54:27;;;;;;;;;;;;;;;23.04;66.84;100868.06;7405470;19;1550;-42
2022/06/06 10:57:17;;;;;;;;;;;;;;;23.05;66.73;100872.44;7406707;19;1601;-41
2022/06/06 11:00:04;;;;;;;;;;;;;;;23.05;66.71;100868.91;7406619;19;1353;-43
2022/06/06 11:02:50;;;;;;;;;;;;;;;23.12;66.91;100867.22;7404366;19;1993;-42
2022/06/06 11:05:33;;;;;;;;;;;;;;;23.00;67.04;100867.50;7403002;19;1849;-41
2022/06/06 11:08:25;;;;;;;;;;;;;;;23.08;66.96;100890.13;7407476;19;1504;-41
2022/06/06 11:11:25;;;;;;;;;;;;;;;23.00;67.07;100862.09;7404577;19;2160;-41
2022/06/06 11:13:58;;;;;;;;;;;;;;;23.02;66.71;100865.50;7406585;19;1676;-41
2022/06/06 11:16:56;;;;;;;;;;;;;;;23.05;66.77;100877.00;7406991;19;1434;-41
2022/06/06 11:19:45;;;;;;;;;;;;;;;23.05;66.93;100871.59;7405939;19;1574;-41
2022/06/06 11:22:31;;;;;;;;;;;;;;;23.00;66.76;100867.50;7407786;19;1064;-41
2022/06/06 11:25:04;;;;;;;;;;;;;;;23.05;66.90;100872.44;7404379;19;1844;-41
2022/06/06 11:27:49;;;;;;;;;;;;;;;23.03;67.09;100875.28;7404548;19;1561;-41
2022/06/06 11:30:38;;;;;;;;;;;;;;;23.03;67.19;100859.09;7404804;19;1842;-41
2022/06/06 11:33:22;;;;;;;;;;;;;;;22.99;67.12;100841.50;7403337;19;1856;-41
2022/06/06 11:36:08;;;;;;;;;;;;;;;23.06;67.07;100860.66;7405136;19;1965;-41
2022/06/06 11:38:51;;;;;;;;;;;;;;;23.00;66.83;100854.00;7405418;19;1698;-41
2022/06/06 11:41:28;;;;;;;;;;;;;;;23.05;67.12;100850.00;7405032;19;1582;-42
2022/06/06 11:44:11;;;;;;;;;;;;;;;23.03;67.04;100851.00;7405682;19;1560;-41
2022/06/06 11:47:00;;;;;;;;;;;;;;;23.06;66.76;100849.00;7403278;19;1858;-42
2022/06/06 11:49:43;;;;;;;;;;;;;;;23.08;66.72;100852.38;7405496;19;1633;-41
2022/06/06 11:52:27;;;;;;;;;;;;;;;23.06;66.76;100843.59;7404967;19;1670;-41
2022/06/06 11:55:12;;;;;;;;;;;;;;;23.09;66.49;100846.00;7400186;19;1934;-41
2022/06/06 11:57:55;;;;;;;;;;;;;;;23.15;66.61;100854.28;7403927;19;1815;-41
2022/06/06 12:00:31;;;;;;;;;;;;;;;23.16;66.70;100855.97;7403139;19;1818;-41
2022/06/06 12:03:09;;;;;;;;;;;;;;;23.16;66.98;100847.06;7401643;19;1609;-42
2022/06/06 12:05:52;;;;;;;;;;;;;;;23.16;66.92;100853.28;7402032;19;1838;-41
2022/06/06 12:08:38;;;;;;;;;;;;;;;23.12;67.45;100841.13;7405660;19;1412;-41
2022/06/06 12:11:33;;;;;;;;;;;;;;;23.10;67.49;100845.84;7406392;19;1028;-40
2022/06/06 12:14:14;;;;;;;;;;;;;;;23.09;67.79;100849.53;7400387;19;1974;-41
2022/06/06 12:16:48;;;;;;;;;;;;;;;23.10;68.36;100836.88;7403988;19;1716;-40
2022/06/06 12:19:36;;;;;;;;;;;;;;;23.09;69.27;100830.66;7404706;19;1363;-42
2022/06/06 12:22:19;;;;;;;;;;;;;;;23.09;69.59;100840.59;7403577;19;989;-40
2022/06/06 12:25:05;;;;;;;;;;;;;;;23.03;69.32;100834.81;7401304;19;1932;-40
2022/06/06 12:27:42;;;;;;;;;;;;;;;23.05;69.89;100855.41;7403044;19;1931;-40
2022/06/06 12:30:30;;;;;;;;;;;;;;;23.05;70.25;100829.28;7402538;19;1871;-40
2022/06/06 12:33:03;;;;;;;;;;;;;;;23.03;71.00;100842.91;7402621;19;1611;-40
2022/06/06 12:35:37;;;;;;;;;;;;;;;23.04;70.32;100833.00;7401573;19;1631;-40
2022/06/06 12:38:14;;;;;;;;;;;;;;;23.00;70.60;100827.03;7403901;19;1687;-40
2022/06/06 12:40:47;;;;;;;;;;;;;;;23.02;70.07;100830.44;7403131;19;1941;-40
2022/06/06 12:43:24;;;;;;;;;;;;;;;23.06;70.09;100830.13;7402228;19;1595;-40
2022/06/06 12:46:04;;;;;;;;;;;;;;;23.06;69.74;100835.50;7401670;19;1858;-40
2022/06/06 12:48:46;;;;;;;;;;;;;;;23.08;69.71;100828.09;7402078;19;1963;-40
2022/06/06 12:51:18;;;;;;;;;;;;;;;23.09;68.70;100819.03;7402902;19;1805;-40
2022/06/06 12:54:04;;;;;;;;;;;;;;;23.13;68.98;100815.00;7402142;19;1801;-40
2022/06/06 12:56:43;;;;;;;;;;;;;;;23.13;68.91;100820.38;7402880;19;1302;-41
2022/06/06 12:59:26;;;;;;;;;;;;;;;23.16;68.64;100830.88;7403937;19;1435;-40
2022/06/06 13:02:01;;;;;;;;;;;;;;;23.15;68.62;100823.75;7400331;19;1924;-41
2022/06/06 13:04:44;;;;;;;;;;;;;;;23.21;68.90;100840.13;7403585;19;1017;-40
2022/06/06 13:07:27;;;;;;;;;;;;;;;23.27;68.18;100835.97;7402721;19;1399;-40
2022/06/06 13:10:16;;;;;;;;;;;;;;;23.30;68.38;100814.06;7400249;19;2018;-39
2022/06/06 13:12:59;;;;;;;;;;;;;;;23.31;68.02;100813.03;7401164;19;2003;-40
2022/06/06 13:15:32;;;;;;;;;;;;;;;23.27;68.49;100806.28;7401918;19;1732;-39
2022/06/06 13:18:10;;;;;;;;;;;;;;;23.34;68.06;100811.88;7400567;19;1794;-40
2022/06/06 13:20:48;;;;;;;;;;;;;;;23.24;68.54;100817.41;7400771;19;1840;-40
2022/06/06 13:23:37;;;;;;;;;;;;;;;23.27;69.23;100816.22;7402346;19;1035;-40
2022/06/06 13:26:27;;;;;;;;;;;;;;;23.23;69.45;100802.22;7398394;19;2006;-40
2022/06/06 13:28:57;;;;;;;;;;;;;;;23.20;69.83;100805.25;7402197;19;1752;-40
2022/06/06 13:31:44;;;;;;;;;;;;;;;23.21;69.86;100812.31;7400578;19;1816;-40
2022/06/06 13:34:25;;;;;;;;;;;;;;;23.19;70.05;100806.25;7403065;19;1822;-40
2022/06/06 13:37:05;;;;;;;;;;;;;;;23.12;70.71;100780.91;7402716;19;1797;-40
2022/06/06 13:39:39;;;;;;;;;;;;;;;23.12;70.03;100781.78;7399374;19;2025;-40
2022/06/06 13:42:11;;;;;;;;;;;;;;;23.16;70.32;100785.84;7400960;19;1816;-40
2022/06/06 13:45:02;;;;;;;;;;;;;;;23.16;70.14;100764.25;7400849;19;1749;-42
2022/06/06 13:47:43;;;;;;;;;;;;;;;23.24;70.27;100785.03;7400807;19;1931;-40
2022/06/06 13:50:16;;;;;;;;;;;;;;;23.17;69.41;100782.13;7400349;19;1830;-40
2022/06/06 13:52:51;;;;;;;;;;;;;;;23.21;67.58;100786.19;7402669;19;1456;-40
2022/06/06 13:55:26;;;;;;;;;;;;;;;23.17;66.96;100782.13;7399990;19;1925;-40
2022/06/06 13:57:59;;;;;;;;;;;;;;;23.20;65.70;100778.28;7400883;19;1904;-40
2022/06/06 14:00:32;;;;;;;;;;;;;;;23.23;65.31;100783.31;7399806;19;1920;-39
2022/06/06 14:03:15;;;;;;;;;;;;;;;23.27;63.87;100767.66;7397056;19;1891;-41
2022/06/06 14:05:54;;;;;;;;;;;;;;;23.39;64.66;100777.97;7397194;19;1918;-40
2022/06/06 14:08:23;;;;;;;;;;;;;;;23.32;62.48;100787.75;7398300;19;2032;-40
2022/06/06 14:11:03;;;;;;;;;;;;;;;23.32;62.86;100779.66;7399112;19;1954;-41